createdAt,value
2019-05-06T00:01:33.981Z,68.00
2019-05-06T00:04:04.952Z,70.00
2019-05-06T00:06:34.681Z,71.50
2019-05-06T00:09:05.511Z,72.40
2019-05-06T00:11:34.883Z,73.60
2019-05-06T00:14:04.113Z,74.20
2019-05-06T00:16:34.644Z,75.40
2019-05-06T00:19:04.768Z,75.20
2019-05-06T00:21:35.535Z,76.00
2019-05-06T00:24:04.466Z,76.70
2019-05-06T00:26:46.738Z,77.40
2019-05-06T00:29:16.886Z,78.30
2019-05-06T00:31:45.372Z,78.00
2019-05-06T00:34:13.968Z,78.00
2019-05-06T00:36:43.673Z,78.90
2019-05-06T00:39:19.642Z,78.30
2019-05-06T00:41:50.068Z,78.40
2019-05-06T00:44:18.508Z,78.90
2019-05-06T00:46:46.211Z,79.40
2019-05-06T00:49:15.018Z,79.60
2019-05-06T00:51:43.957Z,79.90
2019-05-06T00:54:17.133Z,79.70
2019-05-06T00:56:46.235Z,80.20
2019-05-06T00:59:14.692Z,80.50
2019-05-06T01:01:43.537Z,80.90
2019-05-06T01:04:13.922Z,81.90
2019-05-06T01:06:44.082Z,81.60
2019-05-06T01:09:14.759Z,82.40
2019-05-06T01:11:44.921Z,82.70
2019-05-06T01:14:18.289Z,82.50
2019-05-06T01:16:46.727Z,82.50
2019-05-06T01:19:15.219Z,82.40
2019-05-06T01:21:44.747Z,82.80
2019-05-06T01:24:14.718Z,82.80
2019-05-06T01:26:44.403Z,82.50
2019-05-06T01:29:14.537Z,82.80
2019-05-06T01:31:45.907Z,82.20
2019-05-06T01:34:13.890Z,82.20
2019-05-06T01:36:43.764Z,82.60
2019-05-06T01:39:14.012Z,81.30
2019-05-06T01:41:59.426Z,81.50
2019-05-06T01:44:28.023Z,81.60
2019-05-06T01:46:56.847Z,82.30
2019-05-06T01:49:25.515Z,83.00
2019-05-06T01:51:54.751Z,82.60
2019-05-06T01:54:24.839Z,83.30
2019-05-06T01:56:54.214Z,83.20
2019-05-06T01:59:24.642Z,84.50
2019-05-06T02:01:59.931Z,85.00
2019-05-06T02:04:24.439Z,83.80
2019-05-06T02:06:54.495Z,83.30
2019-05-06T02:09:24.667Z,85.40
2019-05-06T02:11:53.733Z,86.00
2019-05-06T02:14:24.460Z,85.80
2019-05-06T02:16:54.574Z,85.70
2019-05-06T02:19:24.158Z,86.30
2019-05-06T02:21:55.102Z,85.60
2019-05-06T02:24:25.311Z,86.10
2019-05-06T02:26:54.403Z,86.50
2019-05-06T02:29:39.037Z,86.40
2019-05-06T02:32:30.781Z,86.40
2019-05-06T02:35:05.195Z,87.20
2019-05-06T02:37:37.529Z,86.70
2019-05-06T02:40:07.094Z,85.90
2019-05-06T02:42:35.589Z,85.30
2019-05-06T02:45:05.183Z,86.00
2019-05-06T02:47:42.931Z,86.10
2019-05-06T02:50:30.031Z,85.20
2019-05-06T02:52:58.472Z,85.00
2019-05-06T02:55:26.988Z,85.70
2019-05-06T02:57:55.843Z,86.60
2019-05-06T03:00:24.449Z,86.30
2019-05-06T03:02:54.122Z,87.00
2019-05-06T03:05:23.767Z,85.40
2019-05-06T03:07:57.154Z,86.00
2019-05-06T03:10:24.640Z,86.30
2019-05-06T03:12:53.814Z,85.80
2019-05-06T03:15:24.054Z,84.60
2019-05-06T03:17:55.383Z,85.30
2019-05-06T03:20:43.886Z,85.00
2019-05-06T03:23:14.469Z,86.10
2019-05-06T03:25:44.304Z,84.00
2019-05-06T03:28:13.327Z,82.70
2019-05-06T03:30:45.969Z,83.30
2019-05-06T03:33:38.410Z,84.00
2019-05-06T03:35:57.763Z,83.70
2019-05-06T03:38:13.713Z,82.40
2019-05-06T03:40:45.705Z,83.00
2019-05-06T03:43:13.194Z,83.10
2019-05-06T03:45:53.489Z,84.30
2019-05-06T03:48:34.470Z,84.60
2019-05-06T03:51:04.027Z,82.90
2019-05-06T03:53:34.351Z,83.60
2019-05-06T03:56:03.637Z,84.20
2019-05-06T03:58:35.180Z,83.20
2019-05-06T04:01:04.017Z,83.50
2019-05-06T04:03:44.049Z,82.10
2019-05-06T04:06:04.678Z,84.60
2019-05-06T04:08:34.160Z,83.20
2019-05-06T04:11:03.173Z,82.20
2019-05-06T04:13:33.212Z,82.80
2019-05-06T04:16:03.805Z,83.20
2019-05-06T04:18:43.764Z,83.10
2019-05-06T04:21:13.680Z,82.30
2019-05-06T04:24:03.863Z,83.00
2019-05-06T04:26:46.358Z,82.00
2019-05-06T04:29:13.750Z,79.10
2019-05-06T04:31:43.600Z,80.60
2019-05-06T04:34:15.899Z,81.20
2019-05-06T04:36:43.785Z,78.50
2019-05-06T04:39:12.836Z,80.60
2019-05-06T04:41:39.551Z,77.70
2019-05-06T04:44:08.262Z,77.50
2019-05-06T04:46:35.977Z,78.30
2019-05-06T04:49:04.546Z,78.90
2019-05-06T04:51:33.382Z,76.30
2019-05-06T04:54:04.261Z,77.80
2019-05-06T04:56:33.321Z,78.50
2019-05-06T04:59:05.768Z,77.10
2019-05-06T05:01:33.877Z,76.70
2019-05-06T05:04:03.291Z,78.00
2019-05-06T05:06:29.676Z,75.80
2019-05-06T05:08:57.837Z,75.40
2019-05-06T05:11:27.667Z,74.70
2019-05-06T05:14:09.227Z,74.20
2019-05-06T05:16:44.743Z,76.20
2019-05-06T05:19:14.164Z,69.90
2019-05-06T05:21:42.875Z,70.40
2019-05-06T05:24:12.027Z,67.60
2019-05-06T05:26:43.344Z,65.30
2019-05-06T05:29:12.190Z,64.10
2019-05-06T05:31:40.279Z,64.90
2019-05-06T05:34:08.069Z,63.10
2019-05-06T05:36:36.567Z,61.80
2019-05-06T05:39:06.456Z,62.30
2019-05-06T05:41:35.021Z,62.20
2019-05-06T05:44:04.407Z,62.80
2019-05-06T05:46:33.006Z,63.00
2019-05-06T05:49:02.927Z,61.30
2019-05-06T05:51:32.018Z,61.10
2019-05-06T05:54:02.073Z,61.30
2019-05-06T05:56:29.866Z,61.70
2019-05-06T05:58:58.352Z,59.30
2019-05-06T06:01:27.024Z,60.30
2019-05-06T06:06:23.707Z,60.00
2019-05-06T06:08:52.499Z,60.60
2019-05-06T06:11:23.467Z,60.60
2019-05-06T06:13:52.549Z,60.20
2019-05-06T06:16:37.587Z,60.40
2019-05-06T06:19:18.262Z,61.60
2019-05-06T06:21:52.393Z,61.30
2019-05-06T06:24:22.705Z,61.20
2019-05-06T06:26:52.082Z,62.30
2019-05-06T06:29:22.730Z,61.30
2019-05-06T06:32:10.811Z,61.60
2019-05-06T06:34:42.724Z,62.40
2019-05-06T06:37:27.780Z,60.70
2019-05-06T06:39:57.264Z,59.80
2019-05-06T06:42:25.826Z,60.20
2019-05-06T06:44:54.339Z,60.40
2019-05-06T06:47:23.220Z,60.70
2019-05-06T06:49:53.486Z,60.00
2019-05-06T06:52:23.069Z,60.60
2019-05-06T06:54:52.724Z,61.10
2019-05-06T06:57:25.863Z,61.30
2019-05-06T07:00:04.122Z,61.10
2019-05-06T07:05:24.529Z,58.40
2019-05-06T07:07:47.605Z,56.90
2019-05-06T07:10:33.945Z,57.90
2019-05-06T07:13:03.025Z,58.40
2019-05-06T07:15:33.696Z,56.90
2019-05-06T07:18:02.507Z,56.00
2019-05-06T07:23:04.843Z,56.90
2019-05-06T07:25:33.658Z,57.70
2019-05-06T07:28:02.922Z,56.30
2019-05-06T07:30:33.871Z,57.70
2019-05-06T07:33:03.621Z,56.30
2019-05-06T07:35:38.571Z,56.90
2019-05-06T07:38:02.381Z,55.50
2019-05-06T07:40:32.662Z,56.20
2019-05-06T07:43:02.390Z,56.90
2019-05-06T07:45:32.903Z,55.30
2019-05-06T07:48:03.730Z,55.30
2019-05-06T07:50:33.200Z,55.50
2019-05-06T07:53:07.427Z,55.20
2019-05-06T07:55:36.592Z,56.10
2019-05-06T08:00:32.845Z,55.20
2019-05-06T08:03:02.525Z,54.10
2019-05-06T08:05:32.420Z,52.60
2019-05-06T08:08:03.472Z,52.70
2019-05-06T08:10:33.533Z,52.00
2019-05-06T08:13:03.068Z,46.90
2019-05-06T08:15:32.837Z,47.70
2019-05-06T08:18:03.516Z,47.00
2019-05-06T08:20:37.980Z,47.70
2019-05-06T08:23:14.155Z,47.70
2019-05-06T08:25:43.736Z,51.90
2019-05-06T08:28:13.205Z,52.90
2019-05-06T08:30:43.030Z,52.40
2019-05-06T08:33:12.747Z,53.70
2019-05-06T08:35:42.624Z,55.80
2019-05-06T08:38:12.192Z,55.90
2019-05-06T08:40:39.743Z,56.30
2019-05-06T08:43:07.665Z,55.70
2019-05-06T08:45:35.375Z,56.20
2019-05-06T08:50:45.028Z,53.30
2019-05-06T08:53:14.424Z,53.40
2019-05-06T08:55:46.500Z,54.10
2019-05-06T08:58:14.222Z,55.00
2019-05-06T09:00:50.056Z,55.10
2019-05-06T09:03:18.048Z,54.10
2019-05-06T09:05:50.228Z,54.10
2019-05-06T09:08:17.948Z,54.00
2019-05-06T09:10:45.595Z,52.70
2019-05-06T09:13:13.316Z,53.40
2019-05-06T09:15:42.910Z,52.20
2019-05-06T09:18:12.451Z,52.60
2019-05-06T09:20:40.226Z,53.00
2019-05-06T09:23:08.002Z,52.80
2019-05-06T09:25:35.711Z,54.40
2019-05-06T09:28:08.100Z,55.20
2019-05-06T09:30:40.528Z,55.90
2019-05-06T09:33:08.888Z,56.70
2019-05-06T09:35:36.786Z,55.80
2019-05-06T09:38:05.620Z,55.70
2019-05-06T09:40:33.273Z,56.20
2019-05-06T09:43:04.700Z,54.70
2019-05-06T09:45:33.041Z,53.00
2019-05-06T09:48:05.777Z,52.10
2019-05-06T09:53:02.413Z,55.10
2019-05-06T09:55:48.807Z,54.20
2019-05-06T09:58:16.657Z,53.80
2019-05-06T10:00:46.015Z,50.60
2019-05-06T10:03:13.742Z,51.00
2019-05-06T10:05:42.574Z,52.20
2019-05-06T10:08:12.398Z,50.70
2019-05-06T10:10:53.758Z,47.10
2019-05-06T10:13:12.661Z,48.50
2019-05-06T10:15:39.619Z,49.30
2019-05-06T10:18:07.519Z,49.70
2019-05-06T10:20:42.602Z,50.80
2019-05-06T10:23:12.238Z,48.50
2019-05-06T10:25:43.750Z,48.50
2019-05-06T10:28:19.704Z,47.80
2019-05-06T10:30:49.947Z,46.70
2019-05-06T10:33:23.146Z,45.90
2019-05-06T10:35:53.030Z,44.30
2019-05-06T10:38:54.940Z,44.20
2019-05-06T10:41:24.248Z,44.60
2019-05-06T10:44:12.315Z,47.50
2019-05-06T10:46:43.054Z,47.30
2019-05-06T10:49:13.176Z,44.80
2019-05-06T10:52:02.151Z,46.20
2019-05-06T10:54:31.831Z,46.50
2019-05-06T10:57:05.011Z,45.30
2019-05-06T10:59:32.769Z,46.30
2019-05-06T11:02:12.983Z,44.20
2019-05-06T11:04:42.595Z,43.60
2019-05-06T11:07:12.428Z,43.80
2019-05-06T11:09:42.661Z,44.80
2019-05-06T11:14:37.363Z,45.40
2019-05-06T11:17:05.800Z,44.40
2019-05-06T11:19:34.426Z,44.10
2019-05-06T11:22:03.573Z,44.00
2019-05-06T11:24:32.739Z,44.40
2019-05-06T11:27:03.430Z,40.60
2019-05-06T11:29:36.772Z,41.90
2019-05-06T11:32:06.356Z,42.40
2019-05-06T11:34:35.724Z,42.70
2019-05-06T11:37:05.016Z,45.60
2019-05-06T11:39:32.777Z,46.40
2019-05-06T11:42:22.843Z,49.10
2019-05-06T11:44:31.943Z,49.60
2019-05-06T11:49:28.629Z,46.40
2019-05-06T11:51:56.603Z,46.20
2019-05-06T11:54:24.777Z,45.60
2019-05-06T11:56:58.201Z,45.40
2019-05-06T11:59:24.709Z,45.00
2019-05-06T12:02:02.547Z,43.70
2019-05-06T12:04:32.889Z,44.00
2019-05-06T12:09:33.009Z,42.20
2019-05-06T12:12:03.345Z,42.40
2019-05-06T12:14:32.085Z,42.30
2019-05-06T12:17:02.242Z,42.50
2019-05-06T12:22:00.223Z,44.50
2019-05-06T12:24:28.784Z,45.70
2019-05-06T12:26:57.200Z,43.70
2019-05-06T12:29:25.912Z,44.80
2019-05-06T12:31:55.980Z,45.50
2019-05-06T12:34:24.401Z,45.10
2019-05-06T12:36:54.511Z,44.40
2019-05-06T12:39:24.535Z,46.20
2019-05-06T12:42:08.436Z,45.50
2019-05-06T12:44:38.457Z,44.70
2019-05-06T12:47:21.307Z,45.40
2019-05-06T12:49:49.948Z,46.50
2019-05-06T12:52:18.450Z,43.90
2019-05-06T12:54:46.960Z,43.30
2019-05-06T12:57:14.992Z,44.80
2019-05-06T12:59:42.791Z,46.40
2019-05-06T13:02:12.942Z,46.70
2019-05-06T13:04:51.534Z,47.20
2019-05-06T13:07:11.343Z,50.30
2019-05-06T13:09:42.356Z,50.70
2019-05-06T13:12:12.330Z,52.60
2019-05-06T13:14:39.867Z,52.60
2019-05-06T13:17:09.159Z,51.60
2019-05-06T13:19:36.841Z,51.60
2019-05-06T13:22:04.502Z,52.80
2019-05-06T13:24:32.816Z,53.60
2019-05-06T13:32:02.046Z,53.70
2019-05-06T13:34:30.159Z,52.20
2019-05-06T13:36:57.871Z,52.60
2019-05-06T13:39:25.563Z,53.30
2019-05-06T13:44:22.819Z,51.10
2019-05-06T13:46:52.873Z,50.30
2019-05-06T13:51:56.847Z,50.60
2019-05-06T13:54:24.543Z,50.50
2019-05-06T13:56:52.310Z,48.70
2019-05-06T13:59:20.213Z,48.50
2019-05-06T14:01:49.636Z,49.00
2019-05-06T14:04:17.382Z,48.50
2019-05-06T14:06:45.034Z,47.70
2019-05-06T14:09:28.039Z,48.20
2019-05-06T14:11:42.399Z,47.50
2019-05-06T14:14:12.392Z,47.00
2019-05-06T14:16:42.397Z,47.40
2019-05-06T14:19:09.183Z,47.50
2019-05-06T14:21:37.180Z,43.80
2019-05-06T14:24:05.050Z,44.10
2019-05-06T14:26:37.217Z,44.60
2019-05-06T14:29:09.428Z,45.40
2019-05-06T14:31:45.509Z,45.80
2019-05-06T14:34:11.994Z,46.50
2019-05-06T14:36:40.367Z,46.50
2019-05-06T14:39:09.659Z,46.20
2019-05-06T14:41:38.959Z,47.10
2019-05-06T14:44:09.349Z,44.70
2019-05-06T14:46:54.429Z,45.30
2019-05-06T14:49:22.554Z,45.20
2019-05-06T14:51:50.399Z,42.70
2019-05-06T14:54:18.048Z,42.50
2019-05-06T14:56:53.489Z,40.90
2019-05-06T14:59:23.399Z,39.70
2019-05-06T15:01:53.607Z,39.30
2019-05-06T15:04:22.809Z,39.80
2019-05-06T15:06:49.750Z,41.40
2019-05-06T15:09:17.480Z,42.10
2019-05-06T15:11:45.227Z,43.90
2019-05-06T15:14:13.155Z,43.40
2019-05-06T15:19:12.606Z,43.00
2019-05-06T15:21:42.516Z,43.30
2019-05-06T15:24:09.449Z,43.80
2019-05-06T15:26:37.188Z,43.60
2019-05-06T15:29:04.919Z,42.20
2019-05-06T15:31:41.965Z,41.30
2019-05-06T15:34:19.687Z,41.70
2019-05-06T15:36:52.950Z,42.10
2019-05-06T15:39:20.820Z,41.90
2019-05-06T15:41:48.464Z,41.70
2019-05-06T15:44:16.259Z,42.40
2019-05-06T15:46:45.660Z,43.70
2019-05-06T15:49:13.338Z,43.60
2019-05-06T15:51:42.781Z,44.00
2019-05-06T15:54:10.460Z,42.80
2019-05-06T15:56:38.104Z,42.80
2019-05-06T15:59:05.952Z,43.30
2019-05-06T16:01:34.376Z,43.40
2019-05-06T16:04:02.272Z,44.30
2019-05-06T16:06:30.311Z,45.10
2019-05-06T16:08:58.387Z,43.60
2019-05-06T16:11:26.299Z,44.20
2019-05-06T16:13:53.975Z,42.90
2019-05-06T16:16:22.821Z,42.60
2019-05-06T16:18:52.097Z,42.80
2019-05-06T16:21:19.749Z,43.60
2019-05-06T16:23:55.148Z,43.50
2019-05-06T16:26:22.997Z,44.30
2019-05-06T16:28:53.131Z,44.90
2019-05-06T16:31:21.973Z,44.60
2019-05-06T16:36:17.598Z,43.80
2019-05-06T16:38:45.255Z,44.20
2019-05-06T16:41:16.058Z,44.10
2019-05-06T16:43:42.762Z,44.80
2019-05-06T16:46:12.624Z,44.40
2019-05-06T16:48:40.034Z,43.50
2019-05-06T16:51:07.744Z,44.30
2019-05-06T16:53:35.491Z,43.30
2019-05-06T16:56:08.166Z,44.00
2019-05-06T16:58:37.466Z,44.10
2019-05-06T17:01:05.535Z,44.20
2019-05-06T17:03:35.018Z,44.70
2019-05-06T17:06:04.423Z,45.40
2019-05-06T17:08:35.961Z,44.90
2019-05-06T17:11:04.401Z,44.90
2019-05-06T17:13:34.035Z,45.30
2019-05-06T17:16:02.508Z,44.50
2019-05-06T17:18:32.979Z,45.00
2019-05-06T17:20:59.808Z,46.00
2019-05-06T17:23:28.647Z,44.60
2019-05-06T17:25:56.362Z,44.60
2019-05-06T17:28:25.680Z,44.60
2019-05-06T17:30:55.377Z,45.10
2019-05-06T17:33:33.805Z,45.60
2019-05-06T17:36:03.078Z,45.80
2019-05-06T17:38:32.789Z,46.30
2019-05-06T17:41:00.635Z,45.70
2019-05-06T17:43:28.290Z,45.60
2019-05-06T17:46:02.294Z,46.40
2019-05-06T17:48:32.171Z,45.90
2019-05-06T17:51:18.463Z,47.20
2019-05-06T17:53:47.830Z,46.50
2019-05-06T17:56:15.533Z,46.30
2019-05-06T17:58:43.375Z,46.90
2019-05-06T18:01:12.648Z,47.00
2019-05-06T18:03:40.418Z,47.50
2019-05-06T18:06:13.692Z,48.50
2019-05-06T18:08:37.736Z,49.20
2019-05-06T18:11:05.388Z,49.50
2019-05-06T18:13:33.075Z,48.30
2019-05-06T18:16:00.970Z,48.10
2019-05-06T18:18:29.130Z,48.10
2019-05-06T18:20:56.863Z,48.20
2019-05-06T18:23:24.535Z,48.80
2019-05-06T18:25:52.437Z,48.60
2019-05-06T18:28:22.694Z,49.10
2019-05-06T18:30:51.930Z,49.70
2019-05-06T18:33:19.499Z,50.40
2019-05-06T18:35:47.264Z,50.10
2019-05-06T18:38:14.985Z,50.60
2019-05-06T18:40:42.634Z,50.80
2019-05-06T18:43:12.598Z,50.80
2019-05-06T18:45:41.921Z,50.80
2019-05-06T18:48:09.611Z,51.90
2019-05-06T18:50:37.487Z,51.50
2019-05-06T18:53:05.235Z,51.40
2019-05-06T18:55:33.349Z,51.90
2019-05-06T18:58:02.249Z,51.60
2019-05-06T19:00:32.024Z,51.90
2019-05-06T19:02:59.810Z,52.30
2019-05-06T19:05:29.428Z,52.40
2019-05-06T19:07:57.156Z,52.60
2019-05-06T19:10:29.710Z,52.60
2019-05-06T19:15:24.997Z,50.20
2019-05-06T19:17:53.032Z,50.50
2019-05-06T19:20:21.928Z,50.80
2019-05-06T19:22:50.122Z,51.70
2019-05-06T19:25:17.831Z,52.60
2019-05-06T19:30:13.416Z,51.80
2019-05-06T19:32:42.479Z,52.10
2019-05-06T19:35:13.056Z,52.20
2019-05-06T19:37:40.310Z,52.00
2019-05-06T19:42:46.328Z,52.80
2019-05-06T19:45:08.206Z,53.50
2019-05-06T19:47:36.144Z,54.20
2019-05-06T19:50:04.768Z,54.50
2019-05-06T19:52:32.724Z,54.50
2019-05-06T19:55:02.936Z,54.50
2019-05-06T19:57:32.215Z,54.80
2019-05-06T19:59:59.291Z,54.90
2019-05-06T20:02:27.039Z,54.70
2019-05-06T20:04:56.403Z,55.00
2019-05-06T20:07:27.116Z,55.40
2019-05-06T20:10:12.807Z,55.90
2019-05-06T20:13:00.973Z,56.30
2019-05-06T20:15:35.921Z,56.40
2019-05-06T20:18:04.211Z,57.50
2019-05-06T20:20:34.891Z,58.50
2019-05-06T20:23:02.646Z,59.40
2019-05-06T20:25:30.535Z,60.30
2019-05-06T20:27:58.527Z,60.80
2019-05-06T20:30:26.509Z,60.60
2019-05-06T20:32:54.206Z,61.40
2019-05-06T20:35:22.442Z,62.30
2019-05-06T20:37:50.194Z,63.40
2019-05-06T20:40:17.981Z,63.10
2019-05-06T20:42:45.769Z,64.20
2019-05-06T20:45:13.596Z,62.80
2019-05-06T20:47:42.936Z,64.30
2019-05-06T20:50:13.229Z,64.80
2019-05-06T20:52:42.410Z,66.10
2019-05-06T20:55:15.879Z,65.90
2019-05-06T20:57:42.043Z,66.20
2019-05-06T21:00:10.307Z,66.70
2019-05-06T21:02:38.659Z,68.90
2019-05-06T21:05:07.231Z,69.60
2019-05-06T21:07:35.015Z,70.60
2019-05-06T21:10:03.333Z,71.60
2019-05-06T21:12:31.047Z,72.30
2019-05-06T21:14:58.891Z,72.50
2019-05-06T21:17:26.621Z,73.00
2019-05-06T21:19:54.273Z,74.40
2019-05-06T21:22:21.971Z,75.20
2019-05-06T21:24:49.883Z,75.90
2019-05-06T21:27:17.532Z,76.50
2019-05-06T21:29:45.543Z,76.60
2019-05-06T21:32:13.529Z,76.50
2019-05-06T21:34:43.119Z,77.00
2019-05-06T21:37:12.275Z,77.10
2019-05-06T21:39:42.237Z,77.00
2019-05-06T21:42:09.549Z,77.70
2019-05-06T21:44:37.224Z,77.20
2019-05-06T21:47:04.887Z,77.20
2019-05-06T21:49:32.815Z,77.50
2019-05-06T21:52:02.206Z,77.90
2019-05-06T21:54:32.524Z,78.30
2019-05-06T21:56:59.852Z,79.30
2019-05-06T21:59:27.844Z,80.00
2019-05-06T22:01:55.856Z,80.60
2019-05-06T22:04:23.514Z,81.00
2019-05-06T22:06:52.444Z,79.50
2019-05-06T22:09:22.222Z,79.70
2019-05-06T22:11:50.172Z,79.70
2019-05-06T22:14:18.099Z,80.10
2019-05-06T22:16:45.819Z,80.00
2019-05-06T22:19:13.473Z,80.80
2019-05-06T22:21:57.962Z,80.90
2019-05-06T22:24:27.321Z,80.60
2019-05-06T22:26:55.045Z,80.50
2019-05-06T22:29:24.445Z,80.50
2019-05-06T22:31:52.294Z,82.10
2019-05-06T22:34:21.989Z,80.60
2019-05-06T22:36:49.429Z,82.20
2019-05-06T22:39:19.154Z,82.80
2019-05-06T22:41:46.804Z,82.30
2019-05-06T22:44:17.024Z,83.00
2019-05-06T22:46:43.887Z,83.40
2019-05-06T22:49:13.342Z,84.40
2019-05-06T22:51:42.574Z,84.90
2019-05-06T22:54:10.718Z,84.50
2019-05-06T22:56:38.624Z,84.20
2019-05-06T22:59:06.349Z,83.70
2019-05-06T23:01:47.955Z,84.20
2019-05-06T23:04:17.237Z,82.30
2019-05-06T23:06:44.951Z,83.40
2019-05-06T23:09:12.722Z,84.40
2019-05-06T23:11:42.298Z,84.10
2019-05-06T23:14:12.240Z,85.60
2019-05-06T23:16:39.212Z,85.60
2019-05-06T23:19:06.883Z,86.00
2019-05-06T23:21:34.543Z,85.00
2019-05-06T23:24:02.268Z,86.60
2019-05-06T23:26:29.949Z,86.70
2019-05-06T23:28:57.775Z,87.30
2019-05-06T23:31:25.498Z,87.80
2019-05-06T23:33:53.479Z,88.00
2019-05-06T23:36:22.883Z,88.50
2019-05-06T23:39:09.132Z,88.30
2019-05-06T23:41:55.407Z,88.00
2019-05-06T23:44:45.850Z,88.30
2019-05-06T23:47:29.921Z,87.80
2019-05-06T23:50:15.873Z,87.30
2019-05-06T23:53:02.985Z,88.50
2019-05-06T23:55:48.807Z,89.30
2019-05-06T23:58:16.036Z,88.60
